createdAt,value
2022-11-21T00:01:21.306Z,8.20
2022-11-21T00:03:48.986Z,8.20
2022-11-21T00:06:16.750Z,8.20
2022-11-21T00:08:44.523Z,8.20
2022-11-21T00:11:13.564Z,8.10
2022-11-21T00:13:41.725Z,8.10
2022-11-21T00:16:11.875Z,8.10
2022-11-21T00:18:39.573Z,8.10
2022-11-21T00:21:10.293Z,8.20
2022-11-21T00:23:37.573Z,8.10
2022-11-21T00:26:08.869Z,8.20
2022-11-21T00:28:36.960Z,8.20
2022-11-21T00:31:05.698Z,8.10
2022-11-21T00:33:34.833Z,8.10
2022-11-21T00:36:09.318Z,8.10
2022-11-21T00:38:37.284Z,8.10
2022-11-21T00:41:05.504Z,8.10
2022-11-21T00:43:33.261Z,8.10
2022-11-21T00:46:02.845Z,8.10
2022-11-21T00:48:31.789Z,8.10
2022-11-21T00:51:00.440Z,8.10
2022-11-21T00:53:28.234Z,8.10
2022-11-21T00:55:55.651Z,8.10
2022-11-21T00:58:22.947Z,8.10
2022-11-21T01:00:50.261Z,8.10
2022-11-21T01:03:17.879Z,8.10
2022-11-21T01:05:49.644Z,8.10
2022-11-21T01:08:16.967Z,8.10
2022-11-21T01:10:44.170Z,8.10
2022-11-21T01:13:11.349Z,8.10
2022-11-21T01:15:38.577Z,8.10
2022-11-21T01:18:05.829Z,8.10
2022-11-21T01:20:33.020Z,8.10
2022-11-21T01:23:00.259Z,8.00
2022-11-21T01:25:27.449Z,8.00
2022-11-21T01:27:54.667Z,8.00
2022-11-21T01:30:21.953Z,8.00
2022-11-21T01:32:50.039Z,8.00
2022-11-21T01:35:17.986Z,8.00
2022-11-21T01:37:49.457Z,8.10
2022-11-21T01:40:17.195Z,8.00
2022-11-21T01:43:12.221Z,8.10
2022-11-21T01:45:58.471Z,8.10
2022-11-21T01:48:28.119Z,8.00
2022-11-21T01:51:00.541Z,8.10
2022-11-21T01:53:27.969Z,8.10
2022-11-21T01:55:55.426Z,8.00
2022-11-21T01:58:23.700Z,8.10
2022-11-21T02:00:50.997Z,8.00
2022-11-21T02:03:22.269Z,8.00
2022-11-21T02:05:49.808Z,8.00
2022-11-21T02:08:20.854Z,8.00
2022-11-21T02:11:03.979Z,8.00
2022-11-21T02:13:31.278Z,8.00
2022-11-21T02:15:58.853Z,8.00
2022-11-21T02:18:26.093Z,8.00
2022-11-21T02:21:27.660Z,8.00
2022-11-21T02:24:03.392Z,8.00
2022-11-21T02:26:30.724Z,8.00
2022-11-21T02:28:58.547Z,8.00
2022-11-21T02:31:25.843Z,7.90
2022-11-21T02:33:53.155Z,7.90
2022-11-21T02:36:42.457Z,7.90
2022-11-21T02:39:21.881Z,7.90
2022-11-21T02:42:05.236Z,7.90
2022-11-21T02:45:11.699Z,7.90
2022-11-21T02:47:40.223Z,7.90
2022-11-21T02:50:15.390Z,7.90
2022-11-21T02:52:42.825Z,7.80
2022-11-21T02:55:11.747Z,7.80
2022-11-21T02:57:39.744Z,7.80
2022-11-21T03:00:08.263Z,7.80
2022-11-21T03:02:35.841Z,7.80
2022-11-21T03:05:06.940Z,7.80
2022-11-21T03:07:34.526Z,7.80
2022-11-21T03:10:02.106Z,7.80
2022-11-21T03:12:29.459Z,7.90
2022-11-21T03:14:56.651Z,7.80
2022-11-21T03:17:23.825Z,7.80
2022-11-21T03:19:51.014Z,7.90
2022-11-21T03:22:18.345Z,7.90
2022-11-21T03:24:45.535Z,7.90
2022-11-21T03:27:12.765Z,7.90
2022-11-21T03:29:40.008Z,7.90
2022-11-21T03:32:07.260Z,7.90
2022-11-21T03:34:34.649Z,7.90
2022-11-21T03:37:02.031Z,7.90
2022-11-21T03:39:32.358Z,7.90
2022-11-21T03:41:59.638Z,7.90
2022-11-21T03:44:27.219Z,7.90
2022-11-21T03:46:54.706Z,7.90
2022-11-21T03:49:21.943Z,7.90
2022-11-21T03:51:49.297Z,7.80
2022-11-21T03:54:16.576Z,7.80
2022-11-21T03:56:43.801Z,7.90
2022-11-21T03:59:11.016Z,7.90
2022-11-21T04:01:38.318Z,7.90
2022-11-21T04:04:06.322Z,7.90
2022-11-21T04:06:33.513Z,7.90
2022-11-21T04:09:00.804Z,7.90
2022-11-21T04:11:28.087Z,7.90
2022-11-21T04:13:55.298Z,7.90
2022-11-21T04:16:22.470Z,7.90
2022-11-21T04:18:49.711Z,7.90
2022-11-21T04:21:16.966Z,7.90
2022-11-21T04:23:44.154Z,7.90
2022-11-21T04:26:11.394Z,7.90
2022-11-21T04:28:38.687Z,7.90
2022-11-21T04:31:10.829Z,7.90
2022-11-21T04:33:41.528Z,7.80
2022-11-21T04:36:09.347Z,7.90
2022-11-21T04:38:37.196Z,7.90
2022-11-21T04:41:05.009Z,7.80
2022-11-21T04:43:32.327Z,7.80
2022-11-21T04:45:59.510Z,7.80
2022-11-21T04:48:26.730Z,7.80
2022-11-21T04:50:53.946Z,7.80
2022-11-21T04:53:21.171Z,7.80
2022-11-21T04:55:48.440Z,7.80
2022-11-21T04:58:15.640Z,7.80
2022-11-21T05:00:42.850Z,7.80
2022-11-21T05:03:10.769Z,7.80
2022-11-21T05:05:38.119Z,7.80
2022-11-21T05:08:05.474Z,7.80
2022-11-21T05:10:52.889Z,7.80
2022-11-21T05:13:22.760Z,7.80
2022-11-21T05:15:55.921Z,7.80
2022-11-21T05:18:23.412Z,7.80
2022-11-21T05:20:50.704Z,7.90
2022-11-21T05:23:18.003Z,7.90
2022-11-21T05:25:45.165Z,7.90
2022-11-21T05:28:12.404Z,7.90
2022-11-21T05:30:39.637Z,7.90
2022-11-21T05:33:07.027Z,7.90
2022-11-21T05:35:37.665Z,7.90
2022-11-21T05:38:07.476Z,7.90
2022-11-21T05:40:34.756Z,7.90
2022-11-21T05:43:20.485Z,7.90
2022-11-21T05:45:52.030Z,7.90
2022-11-21T05:48:19.352Z,7.90
2022-11-21T05:50:49.843Z,7.90
2022-11-21T05:53:17.633Z,7.90
2022-11-21T05:55:45.354Z,7.90
2022-11-21T05:58:13.048Z,7.90
2022-11-21T06:00:40.516Z,7.90
2022-11-21T06:03:30.199Z,7.90
2022-11-21T06:06:08.168Z,7.90
2022-11-21T06:08:46.917Z,7.80
2022-11-21T06:11:16.537Z,7.80
2022-11-21T06:13:44.356Z,7.80
2022-11-21T06:16:14.352Z,7.90
2022-11-21T06:18:43.919Z,7.90
2022-11-21T06:21:16.612Z,7.90
2022-11-21T06:23:45.599Z,7.90
2022-11-21T06:26:15.625Z,7.90
2022-11-21T06:28:43.998Z,7.90
2022-11-21T06:31:16.894Z,7.90
2022-11-21T06:33:44.858Z,7.90
2022-11-21T06:36:14.839Z,7.90
2022-11-21T06:38:42.502Z,7.90
2022-11-21T06:41:24.437Z,7.90
2022-11-21T06:43:51.818Z,7.90
2022-11-21T06:46:19.312Z,7.90
2022-11-21T06:48:46.580Z,7.90
2022-11-21T06:51:22.142Z,7.90
2022-11-21T06:53:57.122Z,7.90
2022-11-21T06:56:25.845Z,7.90
2022-11-21T06:58:53.460Z,7.90
2022-11-21T07:01:20.889Z,7.90
2022-11-21T07:03:54.447Z,7.90
2022-11-21T07:06:22.170Z,7.90
2022-11-21T07:09:17.716Z,7.90
2022-11-21T07:11:41.187Z,7.80
2022-11-21T07:14:09.370Z,7.80
2022-11-21T07:16:37.267Z,7.90
2022-11-21T07:19:04.513Z,7.90
2022-11-21T07:21:31.779Z,7.90
2022-11-21T07:23:59.530Z,7.90
2022-11-21T07:26:26.757Z,7.90
2022-11-21T07:28:54.121Z,8.00
2022-11-21T07:31:21.372Z,7.90
2022-11-21T07:33:48.644Z,7.90
2022-11-21T07:36:15.934Z,8.00
2022-11-21T07:38:43.283Z,8.00
2022-11-21T07:41:10.635Z,8.00
2022-11-21T07:43:38.152Z,8.10
2022-11-21T07:46:07.514Z,8.00
2022-11-21T07:48:34.995Z,8.10
2022-11-21T07:51:05.840Z,8.10
2022-11-21T07:53:33.139Z,8.10
2022-11-21T07:56:00.582Z,8.00
2022-11-21T07:58:27.868Z,8.00
2022-11-21T08:00:55.065Z,8.00
2022-11-21T08:03:23.121Z,8.00
2022-11-21T08:05:50.594Z,8.10
2022-11-21T08:08:17.965Z,8.10
2022-11-21T08:10:46.081Z,8.10
2022-11-21T08:13:14.178Z,8.10
2022-11-21T08:15:41.611Z,8.10
2022-11-21T08:18:12.717Z,8.10
2022-11-21T08:20:40.666Z,8.20
2022-11-21T08:23:08.389Z,8.20
2022-11-21T08:25:37.907Z,8.20
2022-11-21T08:28:06.037Z,8.10
2022-11-21T08:30:34.105Z,8.20
2022-11-21T08:33:01.805Z,8.20
2022-11-21T08:35:29.622Z,8.20
2022-11-21T08:37:57.857Z,8.20
2022-11-21T08:40:26.658Z,8.20
2022-11-21T08:43:08.276Z,8.20
2022-11-21T08:45:37.411Z,8.20
2022-11-21T08:48:08.736Z,8.20
2022-11-21T08:50:35.920Z,8.20
2022-11-21T08:53:03.531Z,8.30
2022-11-21T08:55:31.627Z,8.20
2022-11-21T08:57:59.435Z,8.30
2022-11-21T09:00:27.257Z,8.30
2022-11-21T09:02:54.705Z,8.30
2022-11-21T09:05:22.036Z,8.30
2022-11-21T09:07:56.309Z,8.30
2022-11-21T09:10:24.282Z,8.40
2022-11-21T09:12:51.575Z,8.40
2022-11-21T09:15:37.524Z,8.40
2022-11-21T09:18:05.293Z,8.50
2022-11-21T09:20:34.750Z,8.50
2022-11-21T09:23:11.115Z,8.50
2022-11-21T09:25:38.567Z,8.50
2022-11-21T09:28:08.655Z,8.50
2022-11-21T09:30:36.298Z,8.50
2022-11-21T09:33:06.001Z,8.50
2022-11-21T09:35:33.774Z,8.50
2022-11-21T09:38:01.066Z,8.60
2022-11-21T09:40:33.212Z,8.60
2022-11-21T09:43:22.292Z,8.70
2022-11-21T09:45:50.420Z,8.80
2022-11-21T09:48:32.800Z,8.90
2022-11-21T09:51:05.330Z,9.00
2022-11-21T09:53:36.421Z,9.00
2022-11-21T09:56:11.277Z,9.10
2022-11-21T09:58:43.704Z,9.10
2022-11-21T10:01:15.159Z,9.10
2022-11-21T10:03:47.925Z,9.10
2022-11-21T10:06:18.683Z,9.20
2022-11-21T10:09:04.536Z,9.20
2022-11-21T10:12:00.743Z,9.20
2022-11-21T10:14:50.484Z,9.20
2022-11-21T10:17:20.829Z,9.20
2022-11-21T10:19:59.842Z,9.20
2022-11-21T10:22:35.578Z,9.20
2022-11-21T10:25:15.256Z,9.20
2022-11-21T10:28:04.910Z,9.20
2022-11-21T10:30:33.410Z,9.20
2022-11-21T10:33:05.802Z,9.20
2022-11-21T10:35:43.266Z,9.20
2022-11-21T10:38:24.286Z,9.30
2022-11-21T10:41:01.094Z,9.40
2022-11-21T10:44:12.668Z,9.50
2022-11-21T10:46:39.952Z,9.60
2022-11-21T10:49:13.445Z,9.70
2022-11-21T10:52:00.207Z,9.70
2022-11-21T10:54:33.623Z,9.70
2022-11-21T10:57:20.547Z,9.70
2022-11-21T11:00:02.884Z,9.80
2022-11-21T11:02:30.089Z,9.80
2022-11-21T11:05:16.188Z,9.90
2022-11-21T11:07:58.448Z,9.90
2022-11-21T11:10:28.072Z,10.00
2022-11-21T11:13:44.492Z,10.00
2022-11-21T11:16:12.125Z,10.00
2022-11-21T11:19:03.180Z,10.00
2022-11-21T11:21:39.563Z,10.10
2022-11-21T11:24:09.782Z,10.30
2022-11-21T11:26:49.516Z,10.60
2022-11-21T11:29:22.190Z,10.70
2022-11-21T11:32:01.086Z,10.80
2022-11-21T11:34:47.162Z,10.90
2022-11-21T11:37:17.361Z,10.90
2022-11-21T11:39:44.675Z,10.80
2022-11-21T11:43:05.859Z,10.70
2022-11-21T11:46:29.260Z,10.70
2022-11-21T11:49:21.177Z,10.70
2022-11-21T11:51:57.000Z,10.60
2022-11-21T11:54:29.475Z,10.70
2022-11-21T11:56:58.668Z,10.90
2022-11-21T11:59:34.308Z,11.00
2022-11-21T12:02:29.357Z,11.00
2022-11-21T12:05:15.468Z,10.90
2022-11-21T12:08:39.726Z,11.00
2022-11-21T12:11:01.161Z,11.00
2022-11-21T12:13:29.818Z,11.00
2022-11-21T12:16:08.594Z,11.00
2022-11-21T12:18:53.484Z,11.00
2022-11-21T12:21:21.382Z,11.00
2022-11-21T12:23:49.821Z,11.10
2022-11-21T12:26:31.016Z,11.10
2022-11-21T12:29:15.689Z,11.10
2022-11-21T12:32:15.157Z,11.10
2022-11-21T12:34:48.284Z,11.10
2022-11-21T12:38:00.628Z,11.00
2022-11-21T12:40:58.990Z,10.90
2022-11-21T12:43:44.038Z,10.80
2022-11-21T12:46:24.225Z,10.80
2022-11-21T12:49:19.600Z,10.80
2022-11-21T12:52:30.311Z,10.80
2022-11-21T12:55:04.246Z,10.70
2022-11-21T12:58:00.501Z,10.80
2022-11-21T13:00:49.015Z,10.90
2022-11-21T13:03:39.697Z,10.90
2022-11-21T13:06:16.080Z,11.00
2022-11-21T13:08:46.198Z,10.90
2022-11-21T13:11:39.460Z,10.90
2022-11-21T13:14:12.991Z,10.90
2022-11-21T13:16:48.168Z,10.80
2022-11-21T13:19:37.019Z,10.80
2022-11-21T13:22:04.292Z,10.80
2022-11-21T13:24:56.336Z,10.70
2022-11-21T13:27:54.738Z,10.70
2022-11-21T13:30:24.723Z,10.70
2022-11-21T13:32:55.877Z,10.60
2022-11-21T13:35:23.116Z,10.60
2022-11-21T13:37:50.278Z,10.60
2022-11-21T13:41:04.670Z,10.60
2022-11-21T13:43:34.058Z,10.60
2022-11-21T13:46:02.363Z,10.60
2022-11-21T13:48:52.361Z,10.60
2022-11-21T13:51:51.580Z,10.60
2022-11-21T13:54:51.081Z,10.60
2022-11-21T13:57:36.458Z,10.60
2022-11-21T14:00:30.862Z,10.60
2022-11-21T14:03:33.364Z,10.50
2022-11-21T14:06:10.724Z,10.50
2022-11-21T14:08:37.909Z,10.50
2022-11-21T14:11:29.923Z,10.50
2022-11-21T14:13:57.315Z,10.40
2022-11-21T14:16:36.552Z,10.40
2022-11-21T14:19:05.356Z,10.30
2022-11-21T14:21:33.762Z,10.30
2022-11-21T14:24:13.261Z,10.20
2022-11-21T14:26:45.278Z,10.20
2022-11-21T14:29:29.191Z,10.10
2022-11-21T14:31:56.805Z,10.10
2022-11-21T14:34:29.307Z,10.00
2022-11-21T14:37:01.027Z,10.00
2022-11-21T14:39:43.726Z,9.90
2022-11-21T14:42:16.362Z,9.90
2022-11-21T14:44:43.888Z,9.80
2022-11-21T14:47:26.129Z,9.80
2022-11-21T14:49:57.022Z,9.70
2022-11-21T14:52:32.612Z,9.60
2022-11-21T14:55:29.294Z,9.60
2022-11-21T14:57:52.339Z,9.50
2022-11-21T15:03:23.813Z,9.40
2022-11-21T15:06:06.444Z,9.40
2022-11-21T15:09:52.788Z,9.30
2022-11-21T15:11:28.642Z,9.30
2022-11-21T15:14:17.828Z,9.30
2022-11-21T15:16:51.502Z,9.20
2022-11-21T15:19:28.068Z,9.20
2022-11-21T15:21:58.225Z,9.20
2022-11-21T15:24:42.401Z,9.20
2022-11-21T15:27:28.370Z,9.10
2022-11-21T15:30:10.143Z,9.10
2022-11-21T15:33:19.778Z,9.10
2022-11-21T15:35:57.405Z,9.00
2022-11-21T15:38:43.110Z,9.00
2022-11-21T15:41:10.298Z,9.00
2022-11-21T15:43:45.055Z,9.00
2022-11-21T15:46:28.621Z,8.90
2022-11-21T15:48:58.334Z,8.90
2022-11-21T15:54:27.639Z,8.80
2022-11-21T15:56:55.226Z,8.80
2022-11-21T15:59:22.729Z,8.80
2022-11-21T16:01:50.173Z,8.80
2022-11-21T16:04:22.387Z,8.80
2022-11-21T16:06:52.445Z,8.80
2022-11-21T16:09:20.321Z,8.70
2022-11-21T16:11:47.600Z,8.70
2022-11-21T16:14:16.987Z,8.70
2022-11-21T16:16:44.933Z,8.70
2022-11-21T16:19:13.670Z,8.70
2022-11-21T16:21:41.552Z,8.70
2022-11-21T16:24:08.883Z,8.70
2022-11-21T16:26:36.246Z,8.70
2022-11-21T16:29:05.606Z,8.70
2022-11-21T16:31:33.002Z,8.70
2022-11-21T16:34:00.787Z,8.70
2022-11-21T16:36:32.172Z,8.70
2022-11-21T16:39:07.661Z,8.70
2022-11-21T16:41:39.253Z,8.60
2022-11-21T16:44:14.010Z,8.60
2022-11-21T16:46:47.190Z,8.60
2022-11-21T16:49:14.867Z,8.60
2022-11-21T16:51:42.189Z,8.60
2022-11-21T16:54:09.844Z,8.60
2022-11-21T16:56:37.097Z,8.60
2022-11-21T16:59:04.458Z,8.60
2022-11-21T17:01:31.931Z,8.60
2022-11-21T17:04:00.139Z,8.60
2022-11-21T17:06:30.287Z,8.60
2022-11-21T17:09:02.250Z,8.60
2022-11-21T17:11:31.353Z,8.60
2022-11-21T17:14:06.411Z,8.50
2022-11-21T17:16:35.590Z,8.50
2022-11-21T17:19:04.286Z,8.60
2022-11-21T17:21:32.315Z,8.50
2022-11-21T17:23:59.758Z,8.50
2022-11-21T17:26:29.135Z,8.50
2022-11-21T17:28:58.777Z,8.50
2022-11-21T17:31:26.746Z,8.50
2022-11-21T17:33:56.694Z,8.50
2022-11-21T17:36:26.265Z,8.50
2022-11-21T17:38:54.613Z,8.50
2022-11-21T17:41:23.986Z,8.40
2022-11-21T17:43:55.855Z,8.40
2022-11-21T17:46:25.170Z,8.40
2022-11-21T17:48:57.326Z,8.40
2022-11-21T17:51:32.884Z,8.40
2022-11-21T17:54:01.183Z,8.40
2022-11-21T17:56:30.711Z,8.40
2022-11-21T17:58:58.155Z,8.40
2022-11-21T18:01:25.729Z,8.30
2022-11-21T18:04:00.495Z,8.30
2022-11-21T18:06:32.326Z,8.30
2022-11-21T18:08:59.738Z,8.30
2022-11-21T18:11:39.001Z,8.20
2022-11-21T18:14:09.509Z,8.30
2022-11-21T18:16:38.609Z,8.30
2022-11-21T18:19:06.289Z,8.30
2022-11-21T18:21:35.838Z,8.30
2022-11-21T18:24:03.263Z,8.30
2022-11-21T18:26:33.585Z,8.30
2022-11-21T18:29:34.572Z,8.30
2022-11-21T18:31:51.642Z,8.30
2022-11-21T18:34:18.957Z,8.30
2022-11-21T18:36:47.621Z,8.30
2022-11-21T18:39:15.778Z,8.30
2022-11-21T18:41:43.723Z,8.40
2022-11-21T18:44:12.682Z,8.40
2022-11-21T18:46:42.111Z,8.40
2022-11-21T18:49:09.749Z,8.40
2022-11-21T18:51:37.361Z,8.40
2022-11-21T18:54:07.967Z,8.40
2022-11-21T18:56:37.245Z,8.40
2022-11-21T18:59:06.021Z,8.40
2022-11-21T19:01:37.391Z,8.40
2022-11-21T19:04:05.060Z,8.40
2022-11-21T19:06:32.382Z,8.40
2022-11-21T19:08:59.677Z,8.40
2022-11-21T19:11:29.539Z,8.40
2022-11-21T19:13:58.025Z,8.40
2022-11-21T19:16:27.011Z,8.40
2022-11-21T19:19:26.281Z,8.40
2022-11-21T19:21:42.507Z,8.40
2022-11-21T19:24:14.506Z,8.40
2022-11-21T19:26:42.923Z,8.40
2022-11-21T19:29:10.747Z,8.40
2022-11-21T19:31:44.573Z,8.40
2022-11-21T19:34:13.493Z,8.40
2022-11-21T19:36:40.905Z,8.40
2022-11-21T19:39:08.900Z,8.40
2022-11-21T19:41:36.746Z,8.50
2022-11-21T19:44:04.209Z,8.50
2022-11-21T19:46:34.471Z,8.40
2022-11-21T19:49:02.260Z,8.50
2022-11-21T19:51:31.969Z,8.50
2022-11-21T19:54:01.426Z,8.40
2022-11-21T19:56:28.922Z,8.50
2022-11-21T19:58:56.887Z,8.50
2022-11-21T20:01:26.792Z,8.50
2022-11-21T20:03:56.497Z,8.50
2022-11-21T20:06:26.121Z,8.50
2022-11-21T20:09:07.546Z,8.50
2022-11-21T20:11:35.606Z,8.50
2022-11-21T20:14:02.908Z,8.50
2022-11-21T20:16:33.040Z,8.50
2022-11-21T20:19:02.919Z,8.50
2022-11-21T20:21:30.511Z,8.60
2022-11-21T20:23:57.968Z,8.60
2022-11-21T20:26:26.575Z,8.50
2022-11-21T20:28:54.314Z,8.50
2022-11-21T20:31:27.717Z,8.50
2022-11-21T20:36:54.914Z,8.50
2022-11-21T20:39:22.137Z,8.50
2022-11-21T20:41:49.428Z,8.50
2022-11-21T20:45:30.005Z,8.50
2022-11-21T20:47:07.223Z,8.50
2022-11-21T20:49:34.685Z,8.50
2022-11-21T20:54:49.176Z,8.50
2022-11-21T20:57:16.574Z,8.50
2022-11-21T20:59:43.917Z,8.50
2022-11-21T21:02:14.745Z,8.50
2022-11-21T21:04:42.505Z,8.60
2022-11-21T21:07:10.255Z,8.60
2022-11-21T21:09:37.690Z,8.60
2022-11-21T21:12:05.657Z,8.60
2022-11-21T21:14:32.913Z,8.60
2022-11-21T21:17:00.250Z,8.60
2022-11-21T21:19:28.011Z,8.60
2022-11-21T21:21:55.481Z,8.60
2022-11-21T21:24:22.829Z,8.60
2022-11-21T21:26:50.171Z,8.60
2022-11-21T21:29:20.285Z,8.60
2022-11-21T21:31:51.576Z,8.60
2022-11-21T21:34:20.977Z,8.60
2022-11-21T21:36:49.083Z,8.60
2022-11-21T21:39:16.504Z,8.60
2022-11-21T21:41:46.048Z,8.60
2022-11-21T21:44:14.038Z,8.60
2022-11-21T21:46:41.512Z,8.60
2022-11-21T21:49:08.854Z,8.60
2022-11-21T21:51:37.381Z,8.60
2022-11-21T21:54:06.348Z,8.60
2022-11-21T21:56:34.110Z,8.60
2022-11-21T21:59:01.382Z,8.60
2022-11-21T22:01:30.835Z,8.60
2022-11-21T22:04:00.657Z,8.60
2022-11-21T22:06:28.997Z,8.60
2022-11-21T22:08:56.394Z,8.60
2022-11-21T22:11:28.674Z,8.60
2022-11-21T22:13:58.056Z,8.60
2022-11-21T22:16:25.804Z,8.60
2022-11-21T22:18:53.317Z,8.60
2022-11-21T22:21:24.463Z,8.60
2022-11-21T22:26:39.545Z,8.60
2022-11-21T22:29:07.123Z,8.70
2022-11-21T22:31:34.668Z,8.60
2022-11-21T22:34:02.064Z,8.60
2022-11-21T22:36:29.293Z,8.70
2022-11-21T22:38:56.819Z,8.70
2022-11-21T22:41:26.481Z,8.70
2022-11-21T22:43:55.897Z,8.70
2022-11-21T22:46:24.899Z,8.70
2022-11-21T22:48:52.118Z,8.70
2022-11-21T22:51:21.972Z,8.70
2022-11-21T22:53:50.133Z,8.70
2022-11-21T22:56:19.748Z,8.60
2022-11-21T22:58:47.833Z,8.70
2022-11-21T23:01:20.837Z,8.70
2022-11-21T23:03:49.348Z,8.70
2022-11-21T23:06:18.904Z,8.70
2022-11-21T23:08:46.297Z,8.60
2022-11-21T23:11:16.230Z,8.60
2022-11-21T23:13:45.109Z,8.60
2022-11-21T23:16:13.267Z,8.60
2022-11-21T23:18:41.008Z,8.60
2022-11-21T23:21:09.690Z,8.60
2022-11-21T23:23:37.088Z,8.60
2022-11-21T23:26:05.083Z,8.60
2022-11-21T23:28:32.978Z,8.60
2022-11-21T23:31:00.212Z,8.60
2022-11-21T23:33:27.571Z,8.60
2022-11-21T23:35:55.061Z,8.60
2022-11-21T23:38:22.391Z,8.50
2022-11-21T23:40:50.168Z,8.50
2022-11-21T23:43:18.712Z,8.50
2022-11-21T23:45:53.665Z,8.50
2022-11-21T23:48:21.722Z,8.50
2022-11-21T23:50:51.243Z,8.50
2022-11-21T23:53:20.027Z,8.50
2022-11-21T23:55:48.291Z,8.50
2022-11-21T23:58:24.356Z,8.50
